Caravelle, Martinique

3:43 AM AST on August 31, 2014 (GMT -0400)
Le Lamentin | Change Station
CLOSE
Current Station
Airport
Location: Le Lamentin,
Elevation: 13 ft
Nearby Weather Stations

Elev 13 ft 14.59 °N, 61.00 °W | Updated 13 minutes ago

Partly Cloudy
Partly Cloudy
81 °F
Feels Like 85 °F
N
9
Wind Variable Wind from East

Today
High -- | Low -- °F
--% Chance of Precip.
Yesterday
High -- | Low -- °F
Precip. -- in
5:51 AM 6:16 PM
Waxing Crescent, 28% visible
Pressure 29.95 in
Visibility 6.2 miles
Clouds Few 2200 ft
Heat Index 85 °F
Dew Point 73 °F
Humidity 79%
Rainfall 0.00 in
Snow Depth Not available.
UV 0 out of 12
Pollen Not available.
Air Quality Not available.
Flu Activity Not available.
METAR TFFF 310730Z AUTO 08008KT 9999 FEW022/// ///TCU 27/23 Q1014

More Conditions Fewer Conditions

Pressure 29.95 in
Visibility 6.2 miles
Clouds Few 2200 ft
Heat Index 85 °F
Dew Point 73 °F
Humidity 79%
Rainfall 0.00 in
Snow Depth Not available.
UV 0 out of 12
Pollen Not available.
Air Quality Not available.
Flu Activity Not available.
METAR TFFF 310730Z AUTO 08008KT 9999 FEW022/// ///TCU 27/23 Q1014

More Conditions Fewer Conditions

10-Day Weather Forecast

Almanac

Astronomy

Aug. 31, 2014 Rise Set
Actual Time 5:51 AM AST 6:16 PM AST
Civil Twilight 5:29 AM AST 6:37 PM AST
Nautical Twilight 5:04 AM AST 7:03 PM AST
Astronomical Twilight 4:38 AM AST 7:28 PM AST
Moon 10:36 AM AST 10:26 PM AST
Length of Visible Light 13h 08m
Length of Day
12h 24m
Tomorrow will be 0m 47s shorter.
Waxing Crescent, 28% of the Moon is Illuminated
Today
Waxing Crescent
Sep 2
First Quarter
Sep 8
Full
Sep 15
Last Quarter
Sep 24
New

Yesterday's Extremes

Country Highs Country Lows

Community

WunderPhotos

Upload Photos

1,748,809 photos uploaded!

Nearby

Snow Depth

Not available.

Earthquake Activity

City Distance Mag. Time & Date
No recent earthquake activity has been reported nearby.
Minimum magnitude displayed is 2.5.

Coastal Water Temperatures

Place Temperature
No Stations Reporting

Nearby Weather Stations